Far Supporter — MVEU7 — position and weather

sailwx.info

Track history (hours):
 
Tides and Currents Weather Stations Pressure Air Temp Water Temp Dewpoint Dewpoint Depression Visibility Wind Speed Wind Dir Waves Ship Positions

Far Supporter

Last reported at 2017-Dec-10 06:23 UTC. Time now 2017-Dec-14 10:17 UTC.
Position N 34°40' E 033°04'.

Length 84 m; draft 4 m.

Type: Cargo ship. MMSI: 233795000.

Date/timePositionNaut miles runAvg speedWind from/ knotsBaromVisibWave heightAir tempDewpointWater temp
2017-Dec-10 06:23N 34°40' E 033°04'0 0.0
2017-Dec-09 22:55N 34°40' E 033°04'0 0.0
2017-Dec-09 21:43N 34°40' E 033°04'0 0.0
2017-Dec-09 19:43N 34°40' E 033°04'0 0.0
2017-Dec-09 19:16N 34°40' E 033°04'0 0.0
2017-Dec-09 18:57N 34°40' E 033°04'0 0.0
2017-Dec-09 18:25N 34°40' E 033°04'0 0.0
2017-Dec-09 17:53N 34°40' E 033°04'0 0.0
2017-Dec-09 17:28N 34°40' E 033°04'0 0.0
2017-Dec-09 16:48N 34°40' E 033°04'0 0.0
2017-Dec-09 16:30N 34°40' E 033°04'0 0.4
2017-Dec-09 16:00N 34°40' E 033°04'2 4.6
2017-Dec-09 15:30N 34°39' E 033°01'0 0.0
2017-Dec-09 15:00N 34°39' E 033°01'0 0.0
2017-Dec-09 14:30N 34°39' E 033°01'0 0.0
2017-Dec-09 14:00N 34°39' E 033°01'0 0.0
2017-Dec-09 13:30N 34°39' E 033°01'0 0.0
2017-Dec-09 13:00N 34°39' E 033°01'0 0.0
2017-Dec-09 12:30N 34°39' E 033°01'0 0.0
2017-Dec-09 12:00N 34°39' E 033°01'0 0.0
2017-Dec-09 11:30N 34°39' E 033°01'0 0.0
2017-Dec-09 11:00N 34°39' E 033°01'0 0.0
2017-Dec-09 10:30N 34°39' E 033°01'0 0.0
2017-Dec-09 10:00N 34°39' E 033°01'0 0.0
2017-Dec-09 09:30N 34°39' E 033°01'0 0.0
2017-Dec-09 09:00N 34°39' E 033°01'0 0.0
2017-Dec-09 08:30N 34°39' E 033°01'0 0.0
2017-Dec-09 08:00N 34°39' E 033°01'0 0.0
2017-Dec-09 07:30N 34°39' E 033°01'0 0.0
2017-Dec-09 07:00N 34°39' E 033°01'0 0.1
2017-Dec-09 06:28N 34°39' E 033°01'2 3.4
2017-Dec-09 05:58N 34°40' E 033°03'0 0.6
2017-Dec-09 05:30N 34°40' E 033°03'1 0.8
2017-Dec-09 04:51N 34°40' E 033°04'0 0.0
2017-Dec-09 04:30N 34°40' E 033°04'0 0.0
2017-Dec-09 03:09N 34°40' E 033°04'0 0.0
2017-Dec-09 02:42N 34°40' E 033°04'0 0.0
2017-Dec-09 02:30N 34°40' E 033°04'0 0.0
2017-Dec-09 01:45N 34°40' E 033°04'0 0.0
2017-Dec-09 01:30N 34°40' E 033°04'0 0.0
2017-Dec-09 00:18N 34°40' E 033°04'0 0.0
2017-Dec-08 23:57N 34°40' E 033°04'0 0.0
2017-Dec-08 23:15N 34°40' E 033°04'0 0.0
2017-Dec-08 22:54N 34°40' E 033°04'0 0.0
2017-Dec-08 21:19N 34°40' E 033°04'0 0.5
2017-Dec-08 21:01N 34°40' E 033°04'1 0.1
2017-Dec-08 10:44N 34°39' E 033°03'2 6.9
2017-Dec-08 10:30N 34°39' E 033°01'0 0.3
2017-Dec-08 10:00N 34°39' E 033°01'0 0.0
2017-Dec-08 09:30N 34°39' E 033°01'0 0.0
2017-Dec-08 09:00N 34°39' E 033°01'0 0.0
2017-Dec-08 08:30N 34°39' E 033°01'0 0.0
2017-Dec-08 08:00N 34°39' E 033°01'0 0.0
2017-Dec-08 07:30N 34°39' E 033°01'0 0.0
2017-Dec-08 07:00N 34°39' E 033°01'0 0.0
2017-Dec-08 06:30N 34°39' E 033°01'0 0.0
2017-Dec-08 06:00N 34°39' E 033°01'1 2.1
2017-Dec-08 05:30N 34°39' E 033°02'1 2.3
2017-Dec-08 05:00N 34°40' E 033°04'0 0.5
2017-Dec-08 04:19N 34°40' E 033°04'0 0.0
2017-Dec-08 03:13N 34°40' E 033°04'0 0.0
2017-Dec-08 01:01N 34°40' E 033°04'0 0.0
2017-Dec-08 00:55N 34°40' E 033°04'0 0.0
2017-Dec-08 00:19N 34°40' E 033°04'0 0.0
2017-Dec-07 23:43N 34°40' E 033°04'0 0.0
2017-Dec-07 23:13N 34°40' E 033°04'0 0.0
2017-Dec-07 22:49N 34°40' E 033°04'0 0.0
2017-Dec-07 20:52N 34°40' E 033°04'0 0.0
2017-Dec-07 20:28N 34°40' E 033°04'0 0.0
2017-Dec-07 19:52N 34°40' E 033°04'0 0.0
2017-Dec-07 19:10N 34°40' E 033°04'0 0.0
2017-Dec-07 18:46N 34°40' E 033°04'0 0.0
2017-Dec-07 18:25N 34°40' E 033°04'0 0.0
2017-Dec-07 17:40N 34°40' E 033°04'0 0.0
2017-Dec-07 17:22N 34°40' E 033°04'0 0.0
2017-Dec-07 16:55N 34°40' E 033°04'0 0.0
2017-Dec-07 16:28N 34°40' E 033°04'0 0.0
2017-Dec-07 06:37N 34°40' E 033°04'0 0.0
2017-Dec-07 06:28N 34°40' E 033°04'0 0.0
2017-Dec-07 05:16N 34°40' E 033°04'0 0.0
2017-Dec-07 03:22N 34°40' E 033°04'0 0.0
2017-Dec-07 02:49N 34°40' E 033°04'0 0.0
2017-Dec-07 02:16N 34°40' E 033°04'0 0.0
2017-Dec-07 01:04N 34°40' E 033°04'0 0.2
2017-Dec-07 00:58N 34°40' E 033°04'0 0.0
2017-Dec-07 00:16N 34°40' E 033°04'0 0.0
2017-Dec-06 23:49N 34°40' E 033°04'0 0.0
2017-Dec-06 23:28N 34°40' E 033°04'0 0.0
2017-Dec-06 22:58N 34°40' E 033°04'0 0.1
2017-Dec-06 22:28N 34°40' E 033°04'0 0.0
2017-Dec-06 21:37N 34°40' E 033°04'0 0.0
2017-Dec-06 21:13N 34°40' E 033°04'0 0.0
2017-Dec-06 20:52N 34°40' E 033°04'  
2017-Dec-04 07:19N 34°40' E 033°04'0 0.0
2017-Dec-04 03:28N 34°40' E 033°04'0 0.1
2017-Dec-04 02:58N 34°40' E 033°04'2 3.8
2017-Dec-04 02:30N 34°38' E 033°04'105 9.7
2017-Dec-03 15:45N 32°60' E 032°22'0 1.1
2017-Dec-03 15:31N 32°59' E 032°22'105 3.7
2017-Dec-02 11:20N 34°39' E 033°03'2 5.4
2017-Dec-02 11:01N 34°39' E 033°01'0 0.0
2017-Dec-02 10:29N 34°39' E 033°01'0 0.0
2017-Dec-02 09:59N 34°39' E 033°01'0 0.0
2017-Dec-02 09:29N 34°39' E 033°01'0 0.0
2017-Dec-02 08:59N 34°39' E 033°01'0 0.0
2017-Dec-02 08:29N 34°39' E 033°01'0 0.0
2017-Dec-02 07:59N 34°39' E 033°01'0 0.0
2017-Dec-02 07:29N 34°39' E 033°01'0 0.0
2017-Dec-02 06:59N 34°39' E 033°01'0 0.0
2017-Dec-02 06:29N 34°39' E 033°01'1 2.1
2017-Dec-02 06:00N 34°39' E 033°02'1 1.6
2017-Dec-02 05:28N 34°40' E 033°03'0 0.0
2017-Dec-02 04:58N 34°40' E 033°03'0 0.0
2017-Dec-02 04:28N 34°40' E 033°03'0 0.0
2017-Dec-02 04:01N 34°40' E 033°03'0 0.0
2017-Dec-02 03:28N 34°40' E 033°03'0 0.0
2017-Dec-02 02:58N 34°40' E 033°03'0 0.0
2017-Dec-02 02:28N 34°40' E 033°03'0 0.0
2017-Dec-02 02:01N 34°40' E 033°03'0 0.0
2017-Dec-02 01:28N 34°40' E 033°03'0 0.0
2017-Dec-02 00:58N 34°40' E 033°03'0 0.0
2017-Dec-02 00:28N 34°40' E 033°03'0 0.0
2017-Dec-01 23:58N 34°40' E 033°03'0 0.0
2017-Dec-01 23:28N 34°40' E 033°03'0 0.0
2017-Dec-01 22:59N 34°40' E 033°03'0 0.0
2017-Dec-01 22:28N 34°40' E 033°03'0 0.0
2017-Dec-01 22:01N 34°40' E 033°03'0 0.0
2017-Dec-01 21:28N 34°40' E 033°03'0 0.0
2017-Dec-01 20:58N 34°40' E 033°03'0 0.0
2017-Dec-01 20:28N 34°40' E 033°03'0 0.0
2017-Dec-01 19:58N 34°40' E 033°03'0 0.0
2017-Dec-01 19:28N 34°40' E 033°03'0 0.0
2017-Dec-01 18:58N 34°40' E 033°03'1 1.2
2017-Dec-01 18:30N 34°39' E 033°03'  
Track history (hours):
 
Tides and Currents Weather Stations Pressure Air Temp Water Temp Dewpoint Dewpoint Depression Visibility Wind Speed Wind Dir Waves Ship Positions

Far Supporter

Last reported at 2017-Dec-10 06:23 UTC. Time now 2017-Dec-14 10:17 UTC.
Position N 34°40' E 033°04'.

Length 84 m; draft 4 m.

Type: Cargo ship. MMSI: 233795000.

Date/timePositionNaut miles runAvg speedWind from/ knotsBaromVisibWave heightAir tempDewpointWater temp
2017-Dec-10 06:23N 34°40' E 033°04'0 0.0
2017-Dec-09 22:55N 34°40' E 033°04'0 0.0
2017-Dec-09 21:43N 34°40' E 033°04'0 0.0
2017-Dec-09 19:43N 34°40' E 033°04'0 0.0
2017-Dec-09 19:16N 34°40' E 033°04'0 0.0
2017-Dec-09 18:57N 34°40' E 033°04'0 0.0
2017-Dec-09 18:25N 34°40' E 033°04'0 0.0
2017-Dec-09 17:53N 34°40' E 033°04'0 0.0
2017-Dec-09 17:28N 34°40' E 033°04'0 0.0
2017-Dec-09 16:48N 34°40' E 033°04'0 0.0
2017-Dec-09 16:30N 34°40' E 033°04'0 0.4
2017-Dec-09 16:00N 34°40' E 033°04'2 4.6
2017-Dec-09 15:30N 34°39' E 033°01'0 0.0
2017-Dec-09 15:00N 34°39' E 033°01'0 0.0
2017-Dec-09 14:30N 34°39' E 033°01'0 0.0
2017-Dec-09 14:00N 34°39' E 033°01'0 0.0
2017-Dec-09 13:30N 34°39' E 033°01'0 0.0
2017-Dec-09 13:00N 34°39' E 033°01'0 0.0
2017-Dec-09 12:30N 34°39' E 033°01'0 0.0
2017-Dec-09 12:00N 34°39' E 033°01'0 0.0
2017-Dec-09 11:30N 34°39' E 033°01'0 0.0
2017-Dec-09 11:00N 34°39' E 033°01'0 0.0
2017-Dec-09 10:30N 34°39' E 033°01'0 0.0
2017-Dec-09 10:00N 34°39' E 033°01'0 0.0
2017-Dec-09 09:30N 34°39' E 033°01'0 0.0
2017-Dec-09 09:00N 34°39' E 033°01'0 0.0
2017-Dec-09 08:30N 34°39' E 033°01'0 0.0
2017-Dec-09 08:00N 34°39' E 033°01'0 0.0
2017-Dec-09 07:30N 34°39' E 033°01'0 0.0
2017-Dec-09 07:00N 34°39' E 033°01'0 0.1
2017-Dec-09 06:28N 34°39' E 033°01'2 3.4
2017-Dec-09 05:58N 34°40' E 033°03'0 0.6
2017-Dec-09 05:30N 34°40' E 033°03'1 0.8
2017-Dec-09 04:51N 34°40' E 033°04'0 0.0
2017-Dec-09 04:30N 34°40' E 033°04'0 0.0
2017-Dec-09 03:09N 34°40' E 033°04'0 0.0
2017-Dec-09 02:42N 34°40' E 033°04'0 0.0
2017-Dec-09 02:30N 34°40' E 033°04'0 0.0
2017-Dec-09 01:45N 34°40' E 033°04'0 0.0
2017-Dec-09 01:30N 34°40' E 033°04'0 0.0
2017-Dec-09 00:18N 34°40' E 033°04'0 0.0
2017-Dec-08 23:57N 34°40' E 033°04'0 0.0
2017-Dec-08 23:15N 34°40' E 033°04'0 0.0
2017-Dec-08 22:54N 34°40' E 033°04'0 0.0
2017-Dec-08 21:19N 34°40' E 033°04'0 0.5
2017-Dec-08 21:01N 34°40' E 033°04'1 0.1
2017-Dec-08 10:44N 34°39' E 033°03'2 6.9
2017-Dec-08 10:30N 34°39' E 033°01'0 0.3
2017-Dec-08 10:00N 34°39' E 033°01'0 0.0
2017-Dec-08 09:30N 34°39' E 033°01'0 0.0
2017-Dec-08 09:00N 34°39' E 033°01'0 0.0
2017-Dec-08 08:30N 34°39' E 033°01'0 0.0
2017-Dec-08 08:00N 34°39' E 033°01'0 0.0
2017-Dec-08 07:30N 34°39' E 033°01'0 0.0
2017-Dec-08 07:00N 34°39' E 033°01'0 0.0
2017-Dec-08 06:30N 34°39' E 033°01'0 0.0
2017-Dec-08 06:00N 34°39' E 033°01'1 2.1
2017-Dec-08 05:30N 34°39' E 033°02'1 2.3
2017-Dec-08 05:00N 34°40' E 033°04'0 0.5
2017-Dec-08 04:19N 34°40' E 033°04'0 0.0
2017-Dec-08 03:13N 34°40' E 033°04'0 0.0
2017-Dec-08 01:01N 34°40' E 033°04'0 0.0
2017-Dec-08 00:55N 34°40' E 033°04'0 0.0
2017-Dec-08 00:19N 34°40' E 033°04'0 0.0
2017-Dec-07 23:43N 34°40' E 033°04'0 0.0
2017-Dec-07 23:13N 34°40' E 033°04'0 0.0
2017-Dec-07 22:49N 34°40' E 033°04'0 0.0
2017-Dec-07 20:52N 34°40' E 033°04'0 0.0
2017-Dec-07 20:28N 34°40' E 033°04'0 0.0
2017-Dec-07 19:52N 34°40' E 033°04'0 0.0
2017-Dec-07 19:10N 34°40' E 033°04'0 0.0
2017-Dec-07 18:46N 34°40' E 033°04'0 0.0
2017-Dec-07 18:25N 34°40' E 033°04'0 0.0
2017-Dec-07 17:40N 34°40' E 033°04'0 0.0
2017-Dec-07 17:22N 34°40' E 033°04'0 0.0
2017-Dec-07 16:55N 34°40' E 033°04'0 0.0
2017-Dec-07 16:28N 34°40' E 033°04'0 0.0
2017-Dec-07 06:37N 34°40' E 033°04'0 0.0
2017-Dec-07 06:28N 34°40' E 033°04'0 0.0
2017-Dec-07 05:16N 34°40' E 033°04'0 0.0
2017-Dec-07 03:22N 34°40' E 033°04'0 0.0
2017-Dec-07 02:49N 34°40' E 033°04'0 0.0
2017-Dec-07 02:16N 34°40' E 033°04'0 0.0
2017-Dec-07 01:04N 34°40' E 033°04'0 0.2
2017-Dec-07 00:58N 34°40' E 033°04'0 0.0
2017-Dec-07 00:16N 34°40' E 033°04'0 0.0
2017-Dec-06 23:49N 34°40' E 033°04'0 0.0
2017-Dec-06 23:28N 34°40' E 033°04'0 0.0
2017-Dec-06 22:58N 34°40' E 033°04'0 0.1
2017-Dec-06 22:28N 34°40' E 033°04'0 0.0
2017-Dec-06 21:37N 34°40' E 033°04'0 0.0
2017-Dec-06 21:13N 34°40' E 033°04'0 0.0
2017-Dec-06 20:52N 34°40' E 033°04'  
2017-Dec-04 07:19N 34°40' E 033°04'0 0.0
2017-Dec-04 03:28N 34°40' E 033°04'0 0.1
2017-Dec-04 02:58N 34°40' E 033°04'2 3.8
2017-Dec-04 02:30N 34°38' E 033°04'105 9.7
2017-Dec-03 15:45N 32°60' E 032°22'0 1.1
2017-Dec-03 15:31N 32°59' E 032°22'105 3.7
2017-Dec-02 11:20N 34°39' E 033°03'2 5.4
2017-Dec-02 11:01N 34°39' E 033°01'0 0.0
2017-Dec-02 10:29N 34°39' E 033°01'0 0.0
2017-Dec-02 09:59N 34°39' E 033°01'0 0.0
2017-Dec-02 09:29N 34°39' E 033°01'0 0.0
2017-Dec-02 08:59N 34°39' E 033°01'0 0.0
2017-Dec-02 08:29N 34°39' E 033°01'0 0.0
2017-Dec-02 07:59N 34°39' E 033°01'0 0.0
2017-Dec-02 07:29N 34°39' E 033°01'0 0.0
2017-Dec-02 06:59N 34°39' E 033°01'0 0.0
2017-Dec-02 06:29N 34°39' E 033°01'1 2.1
2017-Dec-02 06:00N 34°39' E 033°02'1 1.6
2017-Dec-02 05:28N 34°40' E 033°03'0 0.0
2017-Dec-02 04:58N 34°40' E 033°03'0 0.0
2017-Dec-02 04:28N 34°40' E 033°03'0 0.0
2017-Dec-02 04:01N 34°40' E 033°03'0 0.0
2017-Dec-02 03:28N 34°40' E 033°03'0 0.0
2017-Dec-02 02:58N 34°40' E 033°03'0 0.0
2017-Dec-02 02:28N 34°40' E 033°03'0 0.0
2017-Dec-02 02:01N 34°40' E 033°03'0 0.0
2017-Dec-02 01:28N 34°40' E 033°03'0 0.0
2017-Dec-02 00:58N 34°40' E 033°03'0 0.0
2017-Dec-02 00:28N 34°40' E 033°03'0 0.0
2017-Dec-01 23:58N 34°40' E 033°03'0 0.0
2017-Dec-01 23:28N 34°40' E 033°03'0 0.0
2017-Dec-01 22:59N 34°40' E 033°03'0 0.0
2017-Dec-01 22:28N 34°40' E 033°03'0 0.0
2017-Dec-01 22:01N 34°40' E 033°03'0 0.0
2017-Dec-01 21:28N 34°40' E 033°03'0 0.0
2017-Dec-01 20:58N 34°40' E 033°03'0 0.0
2017-Dec-01 20:28N 34°40' E 033°03'0 0.0
2017-Dec-01 19:58N 34°40' E 033°03'0 0.0
2017-Dec-01 19:28N 34°40' E 033°03'0 0.0
2017-Dec-01 18:58N 34°40' E 033°03'1 1.2
2017-Dec-01 18:30N 34°39' E 033°03'  

Dump ship's entire track history